createdAt,value
2022-12-15T00:05:14.340Z,-6.1
2022-12-15T00:15:16.542Z,-6.3
2022-12-15T00:25:18.922Z,-6.5
2022-12-15T00:35:21.196Z,-6.3
2022-12-15T00:45:23.366Z,-5.7
2022-12-15T00:55:25.102Z,-5.6
2022-12-15T01:05:27.517Z,-4.9
2022-12-15T01:15:30.102Z,-4.8
2022-12-15T01:25:31.774Z,-4.9
2022-12-15T01:35:34.458Z,-5.2
2022-12-15T01:45:37.022Z,-5.6
2022-12-15T01:55:38.677Z,-5.9
2022-12-15T02:05:40.424Z,-5.8
2022-12-15T02:25:44.167Z,-5.3
2022-12-15T02:35:46.778Z,-5.3
2022-12-15T02:45:49.247Z,-5.3
2022-12-15T02:55:51.758Z,-5.3
2022-12-15T03:05:54.344Z,-5.4
2022-12-15T03:15:57.005Z,-5.4
2022-12-15T03:25:59.551Z,-5.3
2022-12-15T03:36:02.175Z,-5.2
2022-12-15T03:46:04.530Z,-5.3
2022-12-15T03:56:07.025Z,-5.4
2022-12-15T04:06:08.905Z,-5.4
2022-12-15T04:16:13.633Z,-5.4
2022-12-15T04:26:13.920Z,-5.7
2022-12-15T04:36:16.280Z,-6
2022-12-15T04:46:18.839Z,-6.1
2022-12-15T04:56:21.130Z,-6.2
2022-12-15T05:06:23.742Z,-6.3
2022-12-15T05:16:26.086Z,-6.3
2022-12-15T05:26:27.840Z,-6.2
2022-12-15T05:36:29.604Z,-6.2
2022-12-15T05:46:31.471Z,-6.1
2022-12-15T05:56:33.106Z,-6.3
2022-12-15T06:06:34.939Z,-6.3
2022-12-15T06:16:41.077Z,-6.2
2022-12-15T06:26:39.418Z,-6.3
2022-12-15T06:36:41.474Z,-5.7
2022-12-15T06:46:43.612Z,-5.3
2022-12-15T06:56:46.072Z,-5.1
2022-12-15T07:06:48.115Z,-5
2022-12-15T07:16:50.563Z,-5.1
2022-12-15T07:26:53.158Z,-5.3
2022-12-15T07:36:55.238Z,-5.3
2022-12-15T07:46:57.436Z,-5.3
2022-12-15T07:56:59.544Z,-5.3
2022-12-15T08:07:02.014Z,-5.3
2022-12-15T08:17:03.780Z,-5.2
2022-12-15T08:27:06.210Z,-5.2
2022-12-15T08:37:08.778Z,-5.1
2022-12-15T08:47:10.618Z,-4.8
2022-12-15T08:57:12.703Z,-4.7
2022-12-15T09:07:14.530Z,-4.6
2022-12-15T09:17:16.458Z,-4.4
2022-12-15T09:27:18.305Z,-4.4
2022-12-15T09:37:20.926Z,-4.2
2022-12-15T09:47:23.080Z,-4.1
2022-12-15T09:57:25.614Z,-3.6
2022-12-15T10:07:28.175Z,-2.9
2022-12-15T10:17:30.764Z,-2.7
2022-12-15T10:27:32.558Z,-2.5
2022-12-15T10:37:34.912Z,-2.3
2022-12-15T10:47:36.823Z,-1.9
2022-12-15T10:57:38.714Z,-2
2022-12-15T11:07:41.386Z,-1.8
2022-12-15T11:17:43.889Z,-1.8
2022-12-15T11:27:46.352Z,-1.6
2022-12-15T11:47:51.039Z,-1.4
2022-12-15T11:57:53.061Z,-1.2
2022-12-15T12:07:54.780Z,-1
2022-12-15T12:17:56.824Z,-0.8
2022-12-15T12:38:03.601Z,-0.7
2022-12-15T12:58:05.549Z,-0.2
2022-12-15T13:08:07.896Z,-0.2
2022-12-15T13:18:10.241Z,0.1
2022-12-15T13:28:11.991Z,-0.1
2022-12-15T13:38:13.828Z,-0.2
2022-12-15T13:48:16.565Z,0
2022-12-15T13:58:18.839Z,-0.2
2022-12-15T14:08:21.080Z,-0.2
2022-12-15T14:18:23.747Z,-0.2
2022-12-15T14:28:26.328Z,-0.6
2022-12-15T14:38:28.284Z,-0.8
2022-12-15T14:48:40.828Z,-0.6
2022-12-15T14:58:32.539Z,-1
2022-12-15T15:08:35.426Z,-1.2
2022-12-15T15:18:37.346Z,-1.6
2022-12-15T15:28:39.808Z,-1.8
2022-12-15T15:38:41.750Z,-1.8
2022-12-15T15:48:44.043Z,-2.1
2022-12-15T15:58:46.562Z,-2.3
2022-12-15T16:08:49.031Z,-2.6
2022-12-15T16:18:51.607Z,-2.8
2022-12-15T16:28:53.541Z,-3
2022-12-15T16:38:55.347Z,-3.1
2022-12-15T16:39:17.273Z,-3.1
2022-12-15T16:49:04.960Z,-3.3
2022-12-15T16:59:31.797Z,-3.5
2022-12-15T17:09:09.526Z,-3.6
2022-12-15T17:19:13.887Z,-3.7
2022-12-15T17:29:13.596Z,-3.9
2022-12-15T17:39:16.127Z,-4.1
2022-12-15T17:59:19.648Z,-4.1
2022-12-15T18:09:21.646Z,-4.3
2022-12-15T18:19:23.346Z,-4.4
2022-12-15T18:29:25.729Z,-4.5
2022-12-15T18:39:28.171Z,-4.7
2022-12-15T18:49:30.511Z,-4.7
2022-12-15T18:59:32.311Z,-4.7
2022-12-15T19:09:34.395Z,-4.8
2022-12-15T19:19:36.742Z,-4.9
2022-12-15T19:29:38.656Z,-5.2
2022-12-15T19:39:40.590Z,-5.2
2022-12-15T19:49:43.273Z,-5.4
2022-12-15T19:59:45.517Z,-5.3
2022-12-15T20:09:47.931Z,-5.4
2022-12-15T20:19:49.904Z,-5.7
2022-12-15T20:29:51.834Z,-5.6
2022-12-15T20:39:57.343Z,-5.6
2022-12-15T20:49:56.696Z,-5.7
2022-12-15T20:59:58.542Z,-5.7
2022-12-15T21:10:00.335Z,-5.6
2022-12-15T21:20:02.741Z,-5.7
2022-12-15T21:30:05.267Z,-5.8
2022-12-15T21:40:07.641Z,-6
2022-12-15T21:50:09.511Z,-6
2022-12-15T22:00:11.228Z,-6.1
2022-12-15T22:10:13.322Z,-6.2
2022-12-15T22:20:15.759Z,-6.4
2022-12-15T22:30:17.919Z,-6.6
2022-12-15T22:40:19.787Z,-6.7
2022-12-15T22:50:21.491Z,-6.8
2022-12-15T23:00:23.398Z,-6.9
2022-12-15T23:10:25.840Z,-6.9
2022-12-15T23:20:28.305Z,-7.1
2022-12-15T23:40:32.867Z,-7.1
2022-12-15T23:50:35.399Z,-7.2
